Time;durP1;ratioP1;P1;durP2;ratioP2;P2;SDS_P1;SDS_P2;PMS_P1;PMS_P2;Temp;Humidity;BMP_temperature;BMP_pressure;BME280_temperature;BME280_humidity;BME280_pressure;Samples;Min_cycle;Max_cycle;Signal;HPM_P1;HPM_P2
2022/12/20 00:01:27;;;;;;;49.50;32.40;;;-2.10;99.90;;;;;;5030946;28;20436;-79
2022/12/20 00:03:58;;;;;;;47.57;32.23;;;-2.20;99.90;;;;;;5028473;28;20518;-78
2022/12/20 00:06:27;;;;;;;47.97;32.33;;;-2.20;99.90;;;;;;5019282;28;20812;-79
2022/12/20 00:08:56;;;;;;;48.83;31.20;;;-2.20;99.90;;;;;;5027158;28;20453;-79
2022/12/20 00:11:25;;;;;;;47.10;31.50;;;-2.20;99.90;;;;;;5030841;28;20455;-78
2022/12/20 00:13:55;;;;;;;46.83;32.60;;;-2.20;99.90;;;;;;5030465;28;20470;-78
2022/12/20 00:16:24;;;;;;;49.60;32.57;;;-2.30;99.90;;;;;;5029337;28;20858;-75
2022/12/20 00:18:54;;;;;;;46.93;31.37;;;-2.30;99.90;;;;;;5029716;28;20834;-77
2022/12/20 00:21:25;;;;;;;48.10;31.63;;;-2.30;99.90;;;;;;5030672;28;20461;-77
2022/12/20 00:23:53;;;;;;;46.90;31.17;;;-2.30;99.90;;;;;;5029863;28;20482;-75
2022/12/20 00:26:23;;;;;;;47.13;30.43;;;-2.30;99.90;;;;;;5028520;28;20539;-75
2022/12/20 00:28:54;;;;;;;55.77;32.50;;;-2.40;99.90;;;;;;5033011;28;20465;-75
2022/12/20 00:31:24;;;;;;;47.83;32.63;;;-2.30;99.90;;;;;;5033640;28;20532;-74
2022/12/20 00:33:54;;;;;;;49.80;31.27;;;-2.40;99.90;;;;;;5022728;28;20463;-80
2022/12/20 00:36:23;;;;;;;50.03;32.60;;;-2.40;99.90;;;;;;5029665;28;20463;-78
2022/12/20 00:38:53;;;;;;;48.03;32.43;;;-2.40;99.90;;;;;;5031082;28;20855;-79
2022/12/20 00:41:23;;;;;;;51.07;33.00;;;-2.40;99.90;;;;;;5029871;28;20851;-76
2022/12/20 00:43:54;;;;;;;50.77;33.57;;;-2.50;99.90;;;;;;5018732;28;20462;-80
2022/12/20 00:46:23;;;;;;;51.37;34.23;;;-2.60;99.90;;;;;;5025588;28;20922;-79
2022/12/20 00:48:52;;;;;;;55.67;34.30;;;-2.60;99.90;;;;;;5020990;28;20544;-79
2022/12/20 00:51:21;;;;;;;52.90;33.73;;;-2.60;99.90;;;;;;5034618;28;20452;-79
2022/12/20 00:53:49;;;;;;;57.53;35.60;;;-2.60;99.90;;;;;;5034014;28;21060;-77
2022/12/20 00:56:18;;;;;;;54.43;34.50;;;-2.50;99.90;;;;;;5028021;28;20459;-76
2022/12/20 00:58:47;;;;;;;53.03;34.60;;;-2.60;99.90;;;;;;5034198;28;20458;-79
2022/12/20 01:01:20;;;;;;;50.27;33.83;;;-2.60;99.90;;;;;;5034000;28;20876;-75
2022/12/20 01:03:49;;;;;;;53.83;35.37;;;-2.60;99.90;;;;;;5029216;28;20467;-79
2022/12/20 01:06:20;;;;;;;53.53;35.20;;;-2.60;99.90;;;;;;5020126;28;20449;-77
2022/12/20 01:08:49;;;;;;;55.77;35.00;;;-2.60;99.90;;;;;;5033356;28;20547;-75
2022/12/20 01:11:19;;;;;;;49.83;32.37;;;-2.60;99.90;;;;;;5025389;28;20473;-78
2022/12/20 01:13:49;;;;;;;47.90;33.00;;;-2.50;99.90;;;;;;5019438;28;20478;-79
2022/12/20 01:16:24;;;;;;;50.60;33.17;;;-2.50;99.90;;;;;;5032112;28;20522;-79
2022/12/20 01:18:53;;;;;;;49.60;32.67;;;-2.50;99.90;;;;;;5033760;28;20458;-79
2022/12/20 01:21:24;;;;;;;49.90;33.83;;;-2.50;99.90;;;;;;5021058;28;20854;-75
2022/12/20 01:23:55;;;;;;;48.00;32.90;;;-2.50;99.90;;;;;;5033221;28;20442;-77
2022/12/20 01:26:25;;;;;;;49.50;32.07;;;-2.50;99.90;;;;;;5021614;28;20614;-78
2022/12/20 01:28:55;;;;;;;51.87;32.80;;;-2.50;99.90;;;;;;5032259;28;20820;-79
2022/12/20 01:31:29;;;;;;;50.20;32.63;;;-2.50;99.90;;;;;;5033688;28;20468;-75
2022/12/20 01:33:58;;;;;;;45.03;31.00;;;-2.40;99.90;;;;;;5023917;28;20957;-78
2022/12/20 01:36:28;;;;;;;46.67;31.57;;;-2.50;99.90;;;;;;5022161;28;20556;-82
2022/12/20 01:38:58;;;;;;;46.00;31.03;;;-2.40;99.90;;;;;;5032969;28;20539;-75
2022/12/20 01:41:28;;;;;;;46.87;31.33;;;-2.50;99.90;;;;;;5033224;28;20452;-74
2022/12/20 01:44:00;;;;;;;49.20;31.47;;;-2.40;99.90;;;;;;5025061;28;20459;-77
2022/12/20 01:46:32;;;;;;;46.57;30.87;;;-2.40;99.90;;;;;;5029408;28;20460;-81
2022/12/20 01:49:05;;;;;;;48.17;31.60;;;-2.50;99.90;;;;;;5033105;28;20589;-77
2022/12/20 01:51:38;;;;;;;46.93;30.40;;;-2.50;99.90;;;;;;5036750;28;20448;-74
2022/12/20 01:54:11;;;;;;;46.50;30.70;;;-2.50;99.90;;;;;;5036729;28;20570;-77
2022/12/20 01:56:43;;;;;;;49.53;31.17;;;-2.50;99.90;;;;;;5037218;28;20452;-74
2022/12/20 01:59:13;;;;;;;49.50;31.20;;;-2.40;99.90;;;;;;5036757;28;20491;-78
2022/12/20 02:01:43;;;;;;;46.00;31.20;;;-2.40;99.90;;;;;;5041660;28;20976;-76
2022/12/20 02:04:12;;;;;;;49.50;31.30;;;-2.40;99.90;;;;;;5029364;28;20456;-75
2022/12/20 02:06:40;;;;;;;46.30;30.57;;;-2.40;99.90;;;;;;5034717;28;20471;-74
2022/12/20 02:09:08;;;;;;;45.53;30.67;;;-2.40;99.90;;;;;;5031727;28;20465;-75
2022/12/20 02:11:56;;;;;;;43.83;29.80;;;-2.40;99.90;;;;;;5032685;28;20558;-74
2022/12/20 02:14:36;;;;;;;50.37;32.03;;;-2.40;99.90;;;;;;5026623;28;20493;-75
2022/12/20 02:17:13;;;;;;;48.93;31.20;;;-2.40;99.90;;;;;;5031364;28;20558;-78
2022/12/20 02:19:58;;;;;;;45.20;30.03;;;-2.40;99.90;;;;;;5033315;28;20470;-76
2022/12/20 02:22:33;;;;;;;48.57;32.13;;;-2.40;99.90;;;;;;5032319;28;20450;-76
2022/12/20 02:25:37;;;;;;;45.67;30.37;;;-2.30;99.90;;;;;;5024106;28;20450;-76
2022/12/20 02:28:15;;;;;;;48.30;30.33;;;-2.30;99.90;;;;;;5034795;28;20477;-74
2022/12/20 02:30:47;;;;;;;43.03;29.73;;;-2.20;99.90;;;;;;5033914;28;20612;-78
2022/12/20 02:33:15;;;;;;;47.67;31.60;;;-2.20;99.90;;;;;;5039308;28;20491;-76
2022/12/20 02:35:43;;;;;;;50.80;32.03;;;-2.20;99.90;;;;;;5050088;28;20977;-76
2022/12/20 02:38:27;;;;;;;45.83;30.83;;;-2.20;99.90;;;;;;5049078;28;20462;-75
2022/12/20 02:41:02;;;;;;;49.67;32.40;;;-2.10;99.90;;;;;;5032896;28;20533;-78
2022/12/20 02:46:20;;;;;;;46.63;30.13;;;-2.10;99.90;;;;;;5025326;28;20440;-80
2022/12/20 02:48:51;;;;;;;43.83;30.63;;;-2.10;99.90;;;;;;5025950;28;20467;-77
2022/12/20 02:51:21;;;;;;;43.50;30.07;;;-2.10;99.90;;;;;;5031666;28;20463;-77
2022/12/20 02:53:50;;;;;;;46.67;30.80;;;-2.10;99.90;;;;;;5030392;28;20494;-79
2022/12/20 02:56:22;;;;;;;49.83;31.10;;;-2.10;99.90;;;;;;5012723;28;20542;-78
2022/12/20 02:58:55;;;;;;;48.63;31.47;;;-2.10;99.90;;;;;;5026754;28;20486;-79
2022/12/20 03:01:29;;;;;;;45.73;31.53;;;-2.10;99.90;;;;;;5023271;28;20496;-79
2022/12/20 03:04:00;;;;;;;44.37;30.20;;;-2.20;99.90;;;;;;5021874;28;20464;-77
2022/12/20 03:06:29;;;;;;;49.30;31.53;;;-2.20;99.90;;;;;;5022500;28;20537;-79
2022/12/20 03:08:58;;;;;;;45.50;30.67;;;-2.20;99.90;;;;;;5030861;28;20644;-79
2022/12/20 03:11:26;;;;;;;46.37;31.00;;;-2.10;99.90;;;;;;5019482;28;20448;-79
2022/12/20 03:13:54;;;;;;;45.90;31.13;;;-2.20;99.90;;;;;;5029424;28;20515;-80
2022/12/20 03:16:24;;;;;;;44.80;30.33;;;-2.20;99.90;;;;;;5019673;28;20543;-78
2022/12/20 03:18:52;;;;;;;45.93;29.87;;;-2.20;99.90;;;;;;5022872;28;20905;-77
2022/12/20 03:21:20;;;;;;;48.17;31.73;;;-2.20;99.90;;;;;;5021979;28;20543;-78
2022/12/20 03:23:48;;;;;;;48.63;31.00;;;-2.20;99.90;;;;;;5025254;28;20450;-79
2022/12/20 03:26:16;;;;;;;46.87;30.53;;;-2.20;99.90;;;;;;5033327;28;20467;-78
2022/12/20 03:28:45;;;;;;;44.33;29.80;;;-2.30;99.90;;;;;;5020589;28;20845;-80
2022/12/20 03:31:13;;;;;;;43.53;29.57;;;-2.20;99.90;;;;;;5023402;28;20458;-78
2022/12/20 03:33:43;;;;;;;42.47;30.10;;;-2.20;99.90;;;;;;5034683;28;20804;-79
2022/12/20 03:36:11;;;;;;;43.60;30.33;;;-2.30;99.90;;;;;;5030771;28;20550;-78
2022/12/20 03:38:39;;;;;;;44.53;30.90;;;-2.30;99.90;;;;;;5026942;28;20513;-77
2022/12/20 03:41:10;;;;;;;46.73;32.07;;;-2.30;99.90;;;;;;5025132;28;20475;-78
2022/12/20 03:43:38;;;;;;;45.77;30.87;;;-2.20;99.90;;;;;;5027774;28;20540;-78
2022/12/20 03:46:06;;;;;;;45.57;30.93;;;-2.30;99.90;;;;;;5026221;28;20818;-81
2022/12/20 03:48:35;;;;;;;46.93;31.80;;;-2.20;99.90;;;;;;5022526;28;20494;-78
2022/12/20 03:51:04;;;;;;;46.40;31.43;;;-2.20;99.90;;;;;;5031310;28;20884;-77
2022/12/20 03:53:33;;;;;;;44.83;30.13;;;-2.20;99.90;;;;;;5027584;28;20885;-77
2022/12/20 03:56:01;;;;;;;46.47;31.47;;;-2.20;99.90;;;;;;5016529;28;20447;-79
2022/12/20 03:58:29;;;;;;;48.27;32.27;;;-2.20;99.90;;;;;;5030749;28;20459;-78
2022/12/20 04:00:57;;;;;;;46.93;31.23;;;-2.30;99.90;;;;;;5026354;28;20880;-78
2022/12/20 04:03:25;;;;;;;44.17;31.20;;;-2.30;99.90;;;;;;5029934;28;20463;-77
2022/12/20 04:05:54;;;;;;;46.30;31.00;;;-2.30;99.90;;;;;;5028268;28;21935;-81
2022/12/20 04:08:23;;;;;;;50.37;31.73;;;-2.30;99.90;;;;;;5017646;28;21180;-75
2022/12/20 04:13:37;;;;;;;42.93;30.13;;;-2.20;99.90;;;;;;5024992;28;20487;-77
2022/12/20 04:16:06;;;;;;;42.67;30.10;;;-2.20;99.90;;;;;;5021302;28;20547;-77
2022/12/20 04:18:34;;;;;;;48.57;31.67;;;-2.20;99.90;;;;;;5031109;28;20475;-77
2022/12/20 04:21:03;;;;;;;47.50;32.10;;;-2.20;99.90;;;;;;5035864;28;20447;-77
2022/12/20 04:23:34;;;;;;;47.17;31.80;;;-2.20;99.90;;;;;;5037758;28;20448;-77
2022/12/20 04:26:02;;;;;;;50.30;32.27;;;-2.20;99.90;;;;;;5030399;28;21017;-76
2022/12/20 04:28:31;;;;;;;46.53;31.00;;;-2.20;99.90;;;;;;5033874;28;20549;-77
2022/12/20 04:30:59;;;;;;;47.87;32.30;;;-2.10;99.90;;;;;;5029662;28;20961;-78
2022/12/20 04:33:28;;;;;;;46.70;30.53;;;-2.10;99.90;;;;;;5029604;28;20451;-76
2022/12/20 04:35:58;;;;;;;45.57;29.33;;;-2.10;99.90;;;;;;5025691;28;20522;-80
2022/12/20 04:38:26;;;;;;;45.10;30.17;;;-2.00;99.90;;;;;;5034124;28;20535;-78
2022/12/20 04:40:56;;;;;;;42.33;28.90;;;-1.90;99.90;;;;;;5036191;28;20993;-77
2022/12/20 04:43:24;;;;;;;44.17;30.40;;;-2.00;99.90;;;;;;5039355;28;20988;-79
2022/12/20 04:45:56;;;;;;;44.50;30.70;;;-2.00;99.90;;;;;;5028028;28;20464;-79
2022/12/20 04:48:26;;;;;;;44.40;30.00;;;-2.00;99.90;;;;;;5032085;28;20491;-78
2022/12/20 04:51:14;;;;;;;43.47;30.33;;;-2.00;99.90;;;;;;5023682;28;20451;-75
2022/12/20 04:53:47;;;;;;;43.17;29.70;;;-2.00;99.90;;;;;;5028285;28;20550;-76
2022/12/20 04:56:19;;;;;;;42.67;29.60;;;-1.90;99.90;;;;;;5033666;28;20535;-76
2022/12/20 04:58:49;;;;;;;44.30;30.50;;;-2.00;99.90;;;;;;5034005;28;20444;-80
2022/12/20 05:01:18;;;;;;;45.87;30.53;;;-2.00;99.90;;;;;;5033008;28;20537;-78
2022/12/20 05:03:46;;;;;;;45.33;30.37;;;-2.00;99.90;;;;;;5022148;28;20462;-76
2022/12/20 05:06:15;;;;;;;47.33;31.33;;;-2.00;99.90;;;;;;5032888;28;20883;-78
2022/12/20 05:08:43;;;;;;;46.37;30.10;;;-2.10;99.90;;;;;;5030600;28;20478;-77
2022/12/20 05:11:12;;;;;;;44.07;30.20;;;-2.10;99.90;;;;;;5032027;28;20539;-79
2022/12/20 05:13:42;;;;;;;44.03;29.50;;;-2.10;99.90;;;;;;5033784;28;20440;-80
2022/12/20 05:16:10;;;;;;;41.07;29.53;;;-2.20;99.90;;;;;;5032795;28;20858;-81
2022/12/20 05:18:38;;;;;;;45.43;30.17;;;-2.20;99.90;;;;;;5023468;28;20530;-80
2022/12/20 05:26:46;;;;;;;49.13;31.47;;;-2.30;99.90;;;;;;5021094;28;20985;-76
2022/12/20 05:29:16;;;;;;;47.87;30.53;;;-2.30;99.90;;;;;;5025469;28;20510;-79
2022/12/20 05:31:44;;;;;;;49.93;33.00;;;-2.30;99.90;;;;;;5021985;28;20529;-78
2022/12/20 05:34:16;;;;;;;50.73;32.73;;;-2.30;99.90;;;;;;5032728;28;20510;-75
2022/12/20 05:36:44;;;;;;;46.87;32.23;;;-2.30;99.90;;;;;;5030759;28;20835;-77
2022/12/20 05:39:13;;;;;;;47.17;31.63;;;-2.30;99.90;;;;;;5031941;28;20805;-78
2022/12/20 05:41:41;;;;;;;47.53;31.40;;;-2.30;99.90;;;;;;5029809;28;20888;-77
2022/12/20 05:44:09;;;;;;;47.43;31.10;;;-2.20;99.90;;;;;;5031968;28;20514;-77
2022/12/20 05:46:41;;;;;;;48.23;31.47;;;-2.20;99.90;;;;;;5020138;28;21203;-75
2022/12/20 05:49:09;;;;;;;48.90;33.23;;;-2.20;99.90;;;;;;5027667;28;20452;-79
2022/12/20 05:51:37;;;;;;;49.77;32.50;;;-2.20;99.90;;;;;;5032022;28;20448;-77
2022/12/20 05:54:05;;;;;;;47.00;31.30;;;-2.20;99.90;;;;;;5031145;28;20468;-80
2022/12/20 05:56:33;;;;;;;48.67;33.83;;;-2.20;99.90;;;;;;5031766;28;20451;-78
2022/12/20 05:59:05;;;;;;;49.80;33.13;;;-2.20;99.90;;;;;;5027594;28;20983;-78
2022/12/20 06:01:33;;;;;;;53.20;36.77;;;-2.20;99.90;;;;;;5031463;28;20443;-78
2022/12/20 06:04:03;;;;;;;54.87;37.57;;;-2.20;99.90;;;;;;5029298;28;20455;-78
2022/12/20 06:06:31;;;;;;;55.77;36.87;;;-2.30;99.90;;;;;;5031689;28;20448;-78
2022/12/20 06:09:00;;;;;;;55.37;34.10;;;-2.10;99.90;;;;;;5023952;28;20951;-78
2022/12/20 06:11:28;;;;;;;46.03;30.37;;;-2.20;99.90;;;;;;5033329;28;20448;-78
2022/12/20 06:13:58;;;;;;;48.33;30.23;;;-2.10;99.90;;;;;;5031820;28;20468;-75
2022/12/20 06:16:27;;;;;;;47.20;30.97;;;-2.10;99.90;;;;;;5031910;28;20495;-77
2022/12/20 06:18:55;;;;;;;43.27;30.80;;;-2.10;99.90;;;;;;5021003;28;20451;-80
2022/12/20 06:21:27;;;;;;;46.67;30.83;;;-2.10;99.90;;;;;;5029372;28;20480;-76
2022/12/20 06:24:00;;;;;;;49.50;32.30;;;-2.20;99.90;;;;;;5025204;28;20466;-76
2022/12/20 06:26:34;;;;;;;50.77;32.33;;;-2.10;99.90;;;;;;5031850;28;20802;-77
2022/12/20 06:29:05;;;;;;;47.10;31.17;;;-2.10;99.90;;;;;;5021816;28;20963;-80
2022/12/20 06:31:34;;;;;;;51.37;33.00;;;-2.10;99.90;;;;;;5029586;28;20836;-79
2022/12/20 06:34:02;;;;;;;44.27;31.17;;;-2.10;99.90;;;;;;5032408;28;20798;-77
2022/12/20 06:36:32;;;;;;;45.37;31.57;;;-2.10;99.90;;;;;;5031459;28;20495;-77
2022/12/20 06:39:00;;;;;;;45.07;31.13;;;-2.10;99.90;;;;;;5027711;28;20547;-77
2022/12/20 06:41:36;;;;;;;46.67;31.30;;;-2.00;99.90;;;;;;5028952;28;20833;-76
2022/12/20 06:44:05;;;;;;;45.47;31.03;;;-2.10;99.90;;;;;;5029095;28;20458;-80
2022/12/20 06:46:33;;;;;;;47.17;31.53;;;-2.00;99.90;;;;;;5031700;28;20526;-77
2022/12/20 06:49:01;;;;;;;47.67;30.83;;;-2.00;99.90;;;;;;5030772;28;20481;-75
2022/12/20 06:51:31;;;;;;;45.10;31.10;;;-1.90;99.90;;;;;;5031453;28;20494;-78
2022/12/20 06:53:59;;;;;;;44.00;31.03;;;-1.90;99.90;;;;;;5026824;28;20438;-78
2022/12/20 06:56:27;;;;;;;42.03;29.33;;;-1.80;99.90;;;;;;5023272;28;20491;-78
2022/12/20 06:58:55;;;;;;;45.87;29.77;;;-1.80;99.90;;;;;;5029327;28;20470;-77
2022/12/20 07:01:23;;;;;;;42.30;28.93;;;-1.70;99.90;;;;;;5030051;28;20988;-76
2022/12/20 07:03:52;;;;;;;43.93;28.70;;;-1.70;99.90;;;;;;5025889;28;20459;-78
2022/12/20 07:06:20;;;;;;;43.40;28.77;;;-1.60;99.90;;;;;;5026896;28;20450;-73
2022/12/20 07:08:50;;;;;;;42.40;29.87;;;-1.60;99.90;;;;;;5024176;28;20444;-77
2022/12/20 07:11:19;;;;;;;45.97;29.90;;;-1.70;99.90;;;;;;5022312;28;20474;-77
2022/12/20 07:13:47;;;;;;;48.17;30.50;;;-1.70;99.90;;;;;;5023592;28;20934;-75
2022/12/20 07:16:15;;;;;;;44.57;30.37;;;-1.60;99.90;;;;;;5026039;28;20484;-76
2022/12/20 07:18:43;;;;;;;49.60;30.33;;;-1.60;99.90;;;;;;5027182;28;20452;-76
2022/12/20 07:21:15;;;;;;;45.97;29.57;;;-1.60;99.90;;;;;;5012704;28;20484;-78
2022/12/20 07:23:43;;;;;;;47.00;30.87;;;-1.60;99.90;;;;;;5015952;28;20445;-79
2022/12/20 07:26:14;;;;;;;44.63;28.50;;;-1.60;99.90;;;;;;5027437;28;20456;-76
2022/12/20 07:28:43;;;;;;;41.60;28.30;;;-1.50;99.90;;;;;;5030322;28;20459;-77
2022/12/20 07:31:12;;;;;;;41.83;28.93;;;-1.50;99.90;;;;;;5031440;28;20466;-77
2022/12/20 07:33:40;;;;;;;37.73;26.53;;;-1.40;99.90;;;;;;5031211;28;20844;-79
2022/12/20 07:36:11;;;;;;;39.43;27.47;;;-1.40;99.90;;;;;;5030235;28;20571;-78
2022/12/20 07:38:40;;;;;;;39.57;26.63;;;-1.30;99.90;;;;;;5028982;28;20555;-78
2022/12/20 07:41:09;;;;;;;37.80;27.30;;;-1.30;99.90;;;;;;5029518;28;20528;-75
2022/12/20 07:43:38;;;;;;;41.00;27.10;;;-1.20;99.90;;;;;;5030461;28;20463;-74
2022/12/20 07:46:08;;;;;;;45.63;27.93;;;-1.20;99.90;;;;;;5019500;28;20468;-77
2022/12/20 07:48:36;;;;;;;39.67;27.27;;;-1.20;99.90;;;;;;5017565;28;20471;-78
2022/12/20 07:51:08;;;;;;;41.80;28.40;;;-1.20;99.90;;;;;;5016476;28;20452;-76
2022/12/20 07:53:40;;;;;;;41.27;27.07;;;-1.10;99.90;;;;;;5018252;28;20454;-74
2022/12/20 07:56:10;;;;;;;37.70;26.57;;;-1.00;99.90;;;;;;5014475;28;20579;-77
2022/12/20 07:58:42;;;;;;;42.07;27.23;;;-0.90;99.90;;;;;;5018350;28;20973;-77
2022/12/20 08:01:12;;;;;;;48.40;27.87;;;-0.80;99.90;;;;;;5019516;28;20692;-76
2022/12/20 08:03:45;;;;;;;42.97;26.30;;;-0.80;99.90;;;;;;5018931;28;20950;-75
2022/12/20 08:06:15;;;;;;;40.87;27.33;;;-0.70;99.90;;;;;;5018703;28;20436;-74
2022/12/20 08:08:47;;;;;;;41.57;26.67;;;-0.70;99.90;;;;;;5019149;28;20540;-75
2022/12/20 08:11:16;;;;;;;40.07;26.53;;;-0.60;99.90;;;;;;5021819;28;20206;-77
2022/12/20 08:13:46;;;;;;;39.13;24.97;;;-0.60;99.90;;;;;;5025051;28;20209;-77
2022/12/20 08:16:21;;;;;;;36.83;25.17;;;-0.60;99.90;;;;;;5018614;28;20476;-75
2022/12/20 08:18:49;;;;;;;36.67;25.17;;;-0.50;99.90;;;;;;5025867;28;20455;-78
2022/12/20 08:21:17;;;;;;;34.93;25.07;;;-0.50;99.90;;;;;;5033509;28;21047;-75
2022/12/20 08:23:46;;;;;;;35.57;25.90;;;-0.50;99.90;;;;;;5028124;28;21039;-72
2022/12/20 08:26:14;;;;;;;40.93;26.37;;;-0.50;99.90;;;;;;5034373;28;20827;-78
2022/12/20 08:28:43;;;;;;;36.20;24.57;;;-0.40;99.90;;;;;;5035038;28;20460;-78
2022/12/20 08:31:12;;;;;;;35.27;25.73;;;-0.40;99.90;;;;;;5032509;28;20495;-76
2022/12/20 08:33:41;;;;;;;37.27;25.10;;;-0.30;99.90;;;;;;5022929;28;20463;-77
2022/12/20 08:36:13;;;;;;;36.53;24.70;;;-0.20;99.90;;;;;;5022545;28;20568;-74
2022/12/20 08:38:41;;;;;;;36.77;25.37;;;-0.10;99.90;;;;;;5031382;28;20535;-76
2022/12/20 08:41:13;;;;;;;36.93;24.53;;;-0.10;99.90;;;;;;5027460;28;20215;-76
2022/12/20 08:43:42;;;;;;;37.20;24.63;;;0.00;99.90;;;;;;5027549;28;20297;-77
2022/12/20 08:46:13;;;;;;;37.53;24.60;;;-0.20;99.90;;;;;;5029351;28;20296;-76
2022/12/20 08:48:41;;;;;;;35.00;25.00;;;-0.10;99.90;;;;;;5031065;28;20547;-76
2022/12/20 08:51:11;;;;;;;33.73;23.77;;;-0.20;99.90;;;;;;5029299;28;20217;-74
2022/12/20 08:53:42;;;;;;;39.97;25.10;;;-0.20;99.90;;;;;;5030265;28;20201;-74
2022/12/20 08:56:12;;;;;;;34.20;24.27;;;-0.10;99.90;;;;;;5020673;28;20338;-77
2022/12/20 08:58:41;;;;;;;36.37;26.17;;;0.00;99.90;;;;;;5026712;28;20613;-75
2022/12/20 09:01:13;;;;;;;33.07;24.80;;;0.10;99.90;;;;;;5033796;28;20288;-76
2022/12/20 09:03:42;;;;;;;39.87;25.83;;;0.20;99.90;;;;;;5033511;28;20240;-75
2022/12/20 09:06:12;;;;;;;33.47;23.33;;;0.20;99.90;;;;;;5028229;28;20233;-76
2022/12/20 09:08:40;;;;;;;32.37;24.30;;;0.30;99.90;;;;;;5022730;28;20210;-76
2022/12/20 09:11:11;;;;;;;42.47;24.60;;;0.30;99.90;;;;;;5032257;28;20262;-77
2022/12/20 09:13:41;;;;;;;37.97;23.93;;;0.40;99.90;;;;;;5021954;28;20210;-76
2022/12/20 09:16:14;;;;;;;36.27;24.67;;;0.30;99.90;;;;;;5023536;28;20213;-78
2022/12/20 09:18:43;;;;;;;36.83;26.33;;;0.50;99.90;;;;;;5030277;28;20215;-76
2022/12/20 09:21:12;;;;;;;37.70;26.67;;;0.40;99.90;;;;;;5016965;28;20763;-76
2022/12/20 09:23:40;;;;;;;37.93;25.17;;;0.50;99.90;;;;;;5022441;28;20292;-78
2022/12/20 09:26:11;;;;;;;38.77;26.77;;;0.60;99.90;;;;;;5022181;28;20576;-74
2022/12/20 09:28:40;;;;;;;39.17;25.90;;;0.70;99.90;;;;;;5021928;28;20201;-76
2022/12/20 09:31:15;;;;;;;43.10;26.90;;;0.90;99.90;;;;;;5015910;28;20213;-78
2022/12/20 09:33:43;;;;;;;37.50;26.97;;;1.00;99.90;;;;;;5020679;28;20210;-77
2022/12/20 09:36:12;;;;;;;37.80;25.80;;;0.80;99.90;;;;;;5016172;28;20686;-77
2022/12/20 09:38:40;;;;;;;32.07;24.07;;;0.80;99.90;;;;;;5019259;28;20293;-77
2022/12/20 09:41:20;;;;;;;32.97;25.07;;;0.50;99.90;;;;;;5022581;28;20654;-78
2022/12/20 09:43:50;;;;;;;35.03;25.13;;;0.80;99.90;;;;;;5018464;28;20754;-76
2022/12/20 09:46:20;;;;;;;35.17;25.80;;;0.70;99.90;;;;;;5019735;28;20233;-76
2022/12/20 09:48:49;;;;;;;35.60;26.37;;;0.70;99.90;;;;;;5020906;28;20709;-76
2022/12/20 09:51:29;;;;;;;33.93;23.97;;;1.00;99.90;;;;;;5021290;28;20582;-77
2022/12/20 09:54:06;;;;;;;30.97;23.73;;;1.00;99.90;;;;;;5019066;28;20206;-74
2022/12/20 09:56:42;;;;;;;34.27;24.70;;;0.80;99.90;;;;;;5019699;28;20230;-80
2022/12/20 09:59:13;;;;;;;34.40;24.67;;;0.80;99.90;;;;;;5025234;28;20209;-79
2022/12/20 10:01:46;;;;;;;42.53;25.70;;;1.00;99.90;;;;;;5019792;28;20206;-77
2022/12/20 10:04:20;;;;;;;33.17;24.13;;;1.30;99.90;;;;;;5019847;28;20264;-74
2022/12/20 10:06:59;;;;;;;35.80;25.53;;;1.10;99.90;;;;;;5019241;28;20257;-74
2022/12/20 10:09:57;;;;;;;36.20;24.90;;;1.20;99.90;;;;;;5026487;28;20736;-76
2022/12/20 10:12:37;;;;;;;36.40;27.03;;;1.10;99.90;;;;;;4999043;28;20210;-76
2022/12/20 10:15:18;;;;;;;35.93;25.47;;;1.00;99.90;;;;;;5022260;28;20220;-77
2022/12/20 10:18:18;;;;;;;36.60;25.63;;;1.20;99.90;;;;;;5024316;28;20252;-77
2022/12/20 10:20:57;;;;;;;34.97;25.40;;;1.10;99.90;;;;;;5021704;28;20236;-79
2022/12/20 10:23:30;;;;;;;32.43;23.77;;;1.50;99.90;;;;;;5029005;28;20235;-79
2022/12/20 10:26:01;;;;;;;31.30;23.13;;;1.80;99.90;;;;;;5018684;28;20205;-78
2022/12/20 10:28:35;;;;;;;31.77;21.77;;;2.10;99.90;;;;;;5020584;28;20201;-78
2022/12/20 10:31:05;;;;;;;28.83;20.57;;;2.30;99.90;;;;;;5018527;28;20198;-77
2022/12/20 10:33:34;;;;;;;28.00;20.40;;;2.40;99.90;;;;;;5018490;28;20208;-76
2022/12/20 10:36:22;;;;;;;27.83;19.97;;;2.60;99.90;;;;;;5019626;28;20300;-78
2022/12/20 10:38:52;;;;;;;25.87;19.50;;;3.00;99.90;;;;;;5026392;28;20248;-78
2022/12/20 10:41:23;;;;;;;27.07;19.83;;;3.10;99.90;;;;;;5027892;28;20216;-79
2022/12/20 10:43:56;;;;;;;32.70;23.10;;;3.70;99.90;;;;;;5021305;28;20266;-76
2022/12/20 10:46:37;;;;;;;28.93;21.20;;;4.00;99.90;;;;;;5019607;28;20741;-76
2022/12/20 10:49:27;;;;;;;28.10;20.23;;;3.90;99.90;;;;;;5019516;28;20217;-78
2022/12/20 10:51:57;;;;;;;25.53;19.93;;;4.00;99.90;;;;;;5026841;28;20208;-78
2022/12/20 10:54:30;;;;;;;28.87;21.30;;;4.00;99.90;;;;;;5019676;28;20209;-78
2022/12/20 10:57:01;;;;;;;26.23;20.80;;;3.90;99.90;;;;;;5018721;28;20293;-77
2022/12/20 10:59:34;;;;;;;27.53;22.17;;;3.80;99.90;;;;;;5024489;28;20658;-76
2022/12/20 11:02:03;;;;;;;29.83;22.77;;;3.40;99.90;;;;;;5028671;28;20667;-76
2022/12/20 11:04:35;;;;;;;36.03;28.37;;;3.00;99.90;;;;;;5029832;28;20212;-75
2022/12/20 11:07:24;;;;;;;27.80;21.97;;;3.10;99.90;;;;;;5029017;28;20690;-78
2022/12/20 11:09:58;;;;;;;30.87;22.57;;;3.10;99.90;;;;;;5026846;28;20201;-79
2022/12/20 11:12:26;;;;;;;31.33;23.23;;;2.90;99.90;;;;;;5031660;28;20687;-79
2022/12/20 11:15:09;;;;;;;31.37;23.53;;;2.90;99.90;;;;;;5031726;28;20221;-77
2022/12/20 11:17:41;;;;;;;32.17;24.83;;;2.90;99.90;;;;;;5033144;28;20230;-77
2022/12/20 11:20:27;;;;;;;36.10;25.33;;;2.70;99.90;;;;;;5020431;28;20233;-77
2022/12/20 11:23:06;;;;;;;32.67;25.33;;;2.70;99.90;;;;;;5027423;28;20292;-78
2022/12/20 11:25:46;;;;;;;31.20;24.33;;;2.60;99.90;;;;;;5025290;28;20211;-77
2022/12/20 11:28:40;;;;;;;33.00;24.93;;;2.50;99.90;;;;;;5027570;28;20209;-75
2022/12/20 11:31:16;;;;;;;31.83;24.47;;;2.70;99.90;;;;;;5012792;28;20588;-78
2022/12/20 11:34:02;;;;;;;33.90;25.20;;;2.80;99.90;;;;;;5027709;28;20203;-76
2022/12/20 11:36:40;;;;;;;35.60;26.30;;;2.70;99.90;;;;;;5030986;28;20592;-73
2022/12/20 11:39:24;;;;;;;33.57;26.30;;;2.60;99.90;;;;;;5028848;28;20224;-75
2022/12/20 11:42:03;;;;;;;35.60;26.53;;;2.60;99.90;;;;;;5023993;28;20205;-77
2022/12/20 11:44:46;;;;;;;43.57;27.60;;;2.60;99.90;;;;;;5028617;28;20232;-80
2022/12/20 11:48:07;;;;;;;37.27;27.23;;;2.40;99.90;;;;;;5026492;28;20611;-78
2022/12/20 11:50:49;;;;;;;37.63;27.53;;;2.70;99.90;;;;;;5011942;28;20201;-77
2022/12/20 11:53:23;;;;;;;36.47;26.40;;;2.50;99.90;;;;;;5027635;28;20295;-78
2022/12/20 11:55:54;;;;;;;36.77;26.67;;;2.60;99.90;;;;;;5027362;28;20295;-77
2022/12/20 11:58:28;;;;;;;38.80;26.47;;;2.50;99.90;;;;;;5026194;28;20221;-76
2022/12/20 12:01:01;;;;;;;41.00;27.23;;;2.40;99.90;;;;;;5029217;28;20216;-78
2022/12/20 12:03:33;;;;;;;35.10;25.87;;;2.70;99.90;;;;;;5020820;28;20208;-73
2022/12/20 12:06:05;;;;;;;32.90;25.77;;;3.00;99.90;;;;;;5034418;28;20206;-72
2022/12/20 12:08:41;;;;;;;38.90;27.70;;;3.20;99.90;;;;;;5031209;28;20217;-77
2022/12/20 12:11:14;;;;;;;40.47;28.27;;;3.20;99.90;;;;;;5027616;28;20259;-76
2022/12/20 12:14:06;;;;;;;37.57;27.63;;;3.00;99.90;;;;;;5029298;28;20215;-76
2022/12/20 12:16:37;;;;;;;40.83;28.93;;;2.60;99.90;;;;;;5024203;28;20227;-78
2022/12/20 12:19:10;;;;;;;38.10;29.83;;;2.70;99.90;;;;;;5029011;28;20209;-76
2022/12/20 12:21:43;;;;;;;36.33;26.83;;;2.70;99.90;;;;;;5028158;28;20232;-75
2022/12/20 12:24:24;;;;;;;37.67;29.30;;;2.40;99.90;;;;;;5028376;28;20205;-78
2022/12/20 12:26:54;;;;;;;42.43;28.60;;;2.20;99.90;;;;;;5022292;28;20205;-77
2022/12/20 12:29:24;;;;;;;40.40;28.57;;;2.20;99.90;;;;;;5028030;28;20624;-77
2022/12/20 12:31:57;;;;;;;39.53;29.50;;;2.10;99.90;;;;;;5026024;28;20715;-78
2022/12/20 12:34:39;;;;;;;42.33;29.10;;;2.10;99.90;;;;;;5030580;28;20205;-77
2022/12/20 12:37:31;;;;;;;41.67;31.17;;;1.90;99.90;;;;;;5030383;28;20208;-74
2022/12/20 12:40:40;;;;;;;40.80;30.00;;;1.90;99.90;;;;;;5029623;28;20650;-78
2022/12/20 12:43:49;;;;;;;39.07;28.73;;;1.90;99.90;;;;;;5019378;28;20224;-78
2022/12/20 12:46:25;;;;;;;40.80;29.70;;;1.70;99.90;;;;;;5029077;28;20210;-75
2022/12/20 12:48:59;;;;;;;46.30;32.40;;;1.60;99.90;;;;;;5031785;28;20228;-75
2022/12/20 12:51:31;;;;;;;43.73;30.20;;;1.60;99.90;;;;;;5029280;28;20224;-79
2022/12/20 12:54:16;;;;;;;47.00;31.47;;;1.60;99.90;;;;;;5033231;28;20213;-78
2022/12/20 12:56:46;;;;;;;44.40;31.73;;;1.50;99.90;;;;;;5031035;28;20224;-77
2022/12/20 12:59:39;;;;;;;46.80;32.77;;;1.60;99.90;;;;;;5027271;28;20324;-73
2022/12/20 13:02:33;;;;;;;45.70;31.87;;;1.60;99.90;;;;;;5032854;28;20208;-79
2022/12/20 13:05:34;;;;;;;48.97;31.80;;;1.60;99.90;;;;;;5013185;28;20212;-76
2022/12/20 13:08:03;;;;;;;46.13;30.47;;;1.70;99.90;;;;;;5026424;28;20292;-75